CFEFW CYHU-CYHU
Flight info
| Callsign | CFEFW |
|---|---|
| Flight time | 0h 2m |
| Altitude | 1500 |
| Route | |
| Aircraft | DA40/L-VGD/C |
Departure
| Time | 2026-04-23 23:19 |
|---|---|
| Airport | Montréal / Saint-Hubert Metropolitan Airport (CYHU) |
Arrival
| Time | 2026-04-23 23:22 |
|---|---|
| Airport | Montréal / Saint-Hubert Metropolitan Airport (CYHU) |
| Time | Latitude | Longitude | Altitude | Speed | Heading |
|---|---|---|---|---|---|
| 2026-04-23 23:19 | 45.52644 | -73.37096 | 1089 ft | 138 kts | 208° |
| 2026-04-23 23:19 | 45.51811 | -73.37710 | 1072 ft | 120 kts | 208° |
| 2026-04-23 23:19 | 45.51137 | -73.38235 | 975 ft | 114 kts | 211° |
| 2026-04-23 23:20 | 45.50389 | -73.38787 | 945 ft | 130 kts | 208° |
| 2026-04-23 23:20 | 45.49632 | -73.39531 | 991 ft | 131 kts | 228° |
| 2026-04-23 23:20 | 45.49357 | -73.40612 | 878 ft | 111 kts | 277° |
| 2026-04-23 23:20 | 45.49594 | -73.41594 | 682 ft | 97 kts | 308° |
| 2026-04-23 23:21 | 45.49944 | -73.42354 | 565 ft | 84 kts | 318° |
| 2026-04-23 23:21 | 45.50399 | -73.42651 | 456 ft | 65 kts | 13° |
| 2026-04-23 23:21 | 45.50767 | -73.42318 | 349 ft | 60 kts | 43° |
| 2026-04-23 23:21 | 45.51042 | -73.41908 | 227 ft | 58 kts | 47° |
| 2026-04-23 23:22 | 45.51311 | -73.41504 | 107 ft | 49 kts | 47° |
| 2026-04-23 23:22 | 45.51477 | -73.41251 | 92 ft | 27 kts | 46° |
| 2026-04-23 23:22 | 45.51700 | -73.40921 | 187 ft | 56 kts | 46° |
| 2026-04-23 23:22 | 45.51954 | -73.40546 | 445 ft | 55 kts | 48° |
| 2026-04-23 23:23 | 45.52247 | -73.40099 | 615 ft | 71 kts | 45° |
| 2026-04-23 23:23 | 45.52574 | -73.39552 | 855 ft | 77 kts | 63° |
| 2026-04-23 23:23 | 45.52402 | -73.38814 | 1107 ft | 92 kts | 124° |
| 2026-04-23 23:23 | 45.51944 | -73.38099 | 1064 ft | 96 kts | 152° |
| 2026-04-23 23:24 | 45.51365 | -73.38312 | 1001 ft | 93 kts | 227° |
| 2026-04-23 23:24 | 45.50913 | -73.39042 | 874 ft | 102 kts | 234° |
| 2026-04-23 23:24 | 45.50503 | -73.39875 | 822 ft | 99 kts | 242° |
| 2026-04-23 23:24 | 45.50335 | -73.40783 | 656 ft | 93 kts | 292° |
| 2026-04-23 23:25 | 45.50583 | -73.41555 | 421 ft | 79 kts | 317° |
| 2026-04-23 23:25 | 45.50978 | -73.41834 | 224 ft | 55 kts | 28° |
| 2026-04-23 23:25 | 45.51271 | -73.41559 | 114 ft | 48 kts | 41° |
| 2026-04-23 23:25 | 45.51457 | -73.41275 | 95 ft | 31 kts | 51° |
| 2026-04-23 23:26 | 45.51621 | -73.41023 | 98 ft | 37 kts | 46° |
| 2026-04-23 23:26 | 45.51770 | -73.40794 | 89 ft | 24 kts | 45° |
| 2026-04-23 23:26 | 45.51835 | -73.40674 | 90 ft | 6 kts | 103° |
| 2026-04-23 23:26 | 45.51803 | -73.40620 | 91 ft | 0 kts | 107° |